sensor_id;sensor_type;location;lat;lon;timestamp;P1;durP1;ratioP1;P2;durP2;ratioP2
15603;SDS011;7902;49.042;9.092;2022-09-23T00:00:05;32.10;;;2.00;;
15603;SDS011;7902;49.042;9.092;2022-09-23T00:02:32;14.97;;;2.20;;
15603;SDS011;7902;49.042;9.092;2022-09-23T00:04:57;12.40;;;2.30;;
15603;SDS011;7902;49.042;9.092;2022-09-23T00:07:23;16.57;;;2.70;;
15603;SDS011;7902;49.042;9.092;2022-09-23T00:09:49;12.70;;;2.30;;
15603;SDS011;7902;49.042;9.092;2022-09-23T00:12:16;12.30;;;2.10;;
15603;SDS011;7902;49.042;9.092;2022-09-23T00:14:42;13.13;;;1.90;;
15603;SDS011;7902;49.042;9.092;2022-09-23T00:17:08;11.27;;;1.70;;
15603;SDS011;7902;49.042;9.092;2022-09-23T00:19:36;11.60;;;1.80;;
15603;SDS011;7902;49.042;9.092;2022-09-23T00:22:04;12.50;;;2.03;;
15603;SDS011;7902;49.042;9.092;2022-09-23T00:24:31;11.57;;;1.97;;
15603;SDS011;7902;49.042;9.092;2022-09-23T00:26:58;12.40;;;2.30;;
15603;SDS011;7902;49.042;9.092;2022-09-23T00:29:25;15.83;;;2.80;;
15603;SDS011;7902;49.042;9.092;2022-09-23T00:31:51;14.10;;;2.20;;
15603;SDS011;7902;49.042;9.092;2022-09-23T00:34:17;11.00;;;1.60;;
15603;SDS011;7902;49.042;9.092;2022-09-23T00:36:43;11.70;;;1.80;;
15603;SDS011;7902;49.042;9.092;2022-09-23T00:39:09;15.50;;;2.73;;
15603;SDS011;7902;49.042;9.092;2022-09-23T00:41:35;12.70;;;1.70;;
15603;SDS011;7902;49.042;9.092;2022-09-23T00:44:37;14.30;;;2.23;;
15603;SDS011;7902;49.042;9.092;2022-09-23T00:47:14;15.10;;;2.60;;
15603;SDS011;7902;49.042;9.092;2022-09-23T00:49:56;12.20;;;2.13;;
15603;SDS011;7902;49.042;9.092;2022-09-23T00:52:30;15.93;;;3.73;;
15603;SDS011;7902;49.042;9.092;2022-09-23T00:54:57;14.13;;;2.87;;
15603;SDS011;7902;49.042;9.092;2022-09-23T00:57:25;12.57;;;2.57;;
15603;SDS011;7902;49.042;9.092;2022-09-23T00:59:53;15.03;;;2.30;;
15603;SDS011;7902;49.042;9.092;2022-09-23T01:02:19;17.00;;;2.10;;
15603;SDS011;7902;49.042;9.092;2022-09-23T01:04:47;12.53;;;2.30;;
15603;SDS011;7902;49.042;9.092;2022-09-23T01:07:14;14.53;;;2.50;;
15603;SDS011;7902;49.042;9.092;2022-09-23T01:09:40;11.50;;;2.07;;
15603;SDS011;7902;49.042;9.092;2022-09-23T01:14:47;13.47;;;2.30;;
15603;SDS011;7902;49.042;9.092;2022-09-23T01:19:56;13.60;;;2.40;;
15603;SDS011;7902;49.042;9.092;2022-09-23T01:22:51;12.33;;;2.50;;
15603;SDS011;7902;49.042;9.092;2022-09-23T01:28:40;15.07;;;2.50;;
15603;SDS011;7902;49.042;9.092;2022-09-23T01:31:41;12.60;;;2.20;;
15603;SDS011;7902;49.042;9.092;2022-09-23T01:34:12;17.70;;;2.63;;
15603;SDS011;7902;49.042;9.092;2022-09-23T01:36:47;15.83;;;2.30;;
15603;SDS011;7902;49.042;9.092;2022-09-23T01:39:54;12.30;;;2.40;;
15603;SDS011;7902;49.042;9.092;2022-09-23T01:42:27;12.20;;;2.13;;
15603;SDS011;7902;49.042;9.092;2022-09-23T01:48:01;15.27;;;2.43;;
15603;SDS011;7902;49.042;9.092;2022-09-23T01:50:41;12.00;;;2.50;;
15603;SDS011;7902;49.042;9.092;2022-09-23T01:56:26;15.30;;;2.43;;
15603;SDS011;7902;49.042;9.092;2022-09-23T01:58:57;11.73;;;2.17;;
15603;SDS011;7902;49.042;9.092;2022-09-23T02:04:34;13.33;;;2.40;;
15603;SDS011;7902;49.042;9.092;2022-09-23T02:07:07;11.90;;;2.33;;
15603;SDS011;7902;49.042;9.092;2022-09-23T02:09:42;12.50;;;2.40;;
15603;SDS011;7902;49.042;9.092;2022-09-23T02:12:15;12.90;;;2.67;;
15603;SDS011;7902;49.042;9.092;2022-09-23T02:14:49;12.57;;;2.63;;
15603;SDS011;7902;49.042;9.092;2022-09-23T02:17:29;13.03;;;2.90;;
15603;SDS011;7902;49.042;9.092;2022-09-23T02:20:01;11.63;;;2.30;;
15603;SDS011;7902;49.042;9.092;2022-09-23T02:25:02;13.53;;;2.47;;
15603;SDS011;7902;49.042;9.092;2022-09-23T02:27:29;12.90;;;2.90;;
15603;SDS011;7902;49.042;9.092;2022-09-23T02:35:37;14.83;;;2.70;;
15603;SDS011;7902;49.042;9.092;2022-09-23T02:40:52;14.93;;;2.67;;
15603;SDS011;7902;49.042;9.092;2022-09-23T02:46:19;12.60;;;2.90;;
15603;SDS011;7902;49.042;9.092;2022-09-23T02:48:54;12.67;;;3.00;;
15603;SDS011;7902;49.042;9.092;2022-09-23T02:51:19;11.90;;;2.30;;
15603;SDS011;7902;49.042;9.092;2022-09-23T02:53:45;14.33;;;2.80;;
15603;SDS011;7902;49.042;9.092;2022-09-23T02:56:14;12.60;;;2.70;;
15603;SDS011;7902;49.042;9.092;2022-09-23T02:58:44;13.60;;;2.53;;
15603;SDS011;7902;49.042;9.092;2022-09-23T03:06:38;11.30;;;2.10;;
15603;SDS011;7902;49.042;9.092;2022-09-23T03:09:14;14.10;;;2.83;;
15603;SDS011;7902;49.042;9.092;2022-09-23T03:11:47;14.33;;;3.20;;
15603;SDS011;7902;49.042;9.092;2022-09-23T03:14:25;14.13;;;2.53;;
15603;SDS011;7902;49.042;9.092;2022-09-23T03:17:04;12.17;;;2.40;;
15603;SDS011;7902;49.042;9.092;2022-09-23T03:22:24;14.00;;;2.80;;
15603;SDS011;7902;49.042;9.092;2022-09-23T03:24:58;15.63;;;3.00;;
15603;SDS011;7902;49.042;9.092;2022-09-23T03:27:30;12.40;;;2.37;;
15603;SDS011;7902;49.042;9.092;2022-09-23T03:29:59;12.13;;;2.60;;
15603;SDS011;7902;49.042;9.092;2022-09-23T03:32:25;12.00;;;2.37;;
15603;SDS011;7902;49.042;9.092;2022-09-23T03:34:54;11.70;;;2.70;;
15603;SDS011;7902;49.042;9.092;2022-09-23T03:37:24;13.30;;;2.90;;
15603;SDS011;7902;49.042;9.092;2022-09-23T03:40:00;14.27;;;2.87;;
15603;SDS011;7902;49.042;9.092;2022-09-23T03:42:33;11.90;;;2.40;;
15603;SDS011;7902;49.042;9.092;2022-09-23T03:45:03;11.90;;;2.80;;
15603;SDS011;7902;49.042;9.092;2022-09-23T03:47:37;13.20;;;3.13;;
15603;SDS011;7902;49.042;9.092;2022-09-23T03:50:04;15.20;;;3.00;;
15603;SDS011;7902;49.042;9.092;2022-09-23T03:52:31;11.40;;;1.97;;
15603;SDS011;7902;49.042;9.092;2022-09-23T03:54:57;12.47;;;2.30;;
15603;SDS011;7902;49.042;9.092;2022-09-23T03:57:23;11.83;;;2.50;;
15603;SDS011;7902;49.042;9.092;2022-09-23T03:59:50;20.40;;;2.70;;
15603;SDS011;7902;49.042;9.092;2022-09-23T04:02:16;17.70;;;2.80;;
15603;SDS011;7902;49.042;9.092;2022-09-23T04:04:43;21.60;;;5.20;;
15603;SDS011;7902;49.042;9.092;2022-09-23T04:07:10;23.60;;;5.53;;
15603;SDS011;7902;49.042;9.092;2022-09-23T04:09:37;15.63;;;3.63;;
15603;SDS011;7902;49.042;9.092;2022-09-23T04:12:03;14.57;;;3.20;;
15603;SDS011;7902;49.042;9.092;2022-09-23T04:14:29;22.40;;;6.93;;
15603;SDS011;7902;49.042;9.092;2022-09-23T04:16:55;21.23;;;5.90;;
15603;SDS011;7902;49.042;9.092;2022-09-23T04:19:21;14.63;;;3.90;;
15603;SDS011;7902;49.042;9.092;2022-09-23T04:21:47;14.60;;;3.43;;
15603;SDS011;7902;49.042;9.092;2022-09-23T04:24:14;12.00;;;2.80;;
15603;SDS011;7902;49.042;9.092;2022-09-23T04:26:41;12.10;;;2.93;;
15603;SDS011;7902;49.042;9.092;2022-09-23T04:29:07;15.67;;;3.00;;
15603;SDS011;7902;49.042;9.092;2022-09-23T04:31:35;25.70;;;4.07;;
15603;SDS011;7902;49.042;9.092;2022-09-23T04:34:00;13.30;;;3.37;;
15603;SDS011;7902;49.042;9.092;2022-09-23T04:36:27;13.83;;;2.70;;
15603;SDS011;7902;49.042;9.092;2022-09-23T04:38:54;29.73;;;3.50;;
15603;SDS011;7902;49.042;9.092;2022-09-23T04:41:20;12.40;;;3.47;;
15603;SDS011;7902;49.042;9.092;2022-09-23T04:43:47;15.10;;;4.00;;
15603;SDS011;7902;49.042;9.092;2022-09-23T04:46:13;16.57;;;4.60;;
15603;SDS011;7902;49.042;9.092;2022-09-23T04:48:40;19.40;;;4.83;;
15603;SDS011;7902;49.042;9.092;2022-09-23T04:51:07;13.50;;;3.73;;
15603;SDS011;7902;49.042;9.092;2022-09-23T04:53:34;20.10;;;3.53;;
15603;SDS011;7902;49.042;9.092;2022-09-23T04:56:01;20.83;;;5.30;;
15603;SDS011;7902;49.042;9.092;2022-09-23T04:58:31;15.50;;;4.30;;
15603;SDS011;7902;49.042;9.092;2022-09-23T05:01:08;12.60;;;3.40;;
15603;SDS011;7902;49.042;9.092;2022-09-23T05:03:39;13.20;;;2.87;;
15603;SDS011;7902;49.042;9.092;2022-09-23T05:06:05;14.67;;;3.00;;
15603;SDS011;7902;49.042;9.092;2022-09-23T05:08:32;16.90;;;3.03;;
15603;SDS011;7902;49.042;9.092;2022-09-23T05:11:00;14.03;;;2.53;;
15603;SDS011;7902;49.042;9.092;2022-09-23T05:13:31;13.13;;;3.33;;
15603;SDS011;7902;49.042;9.092;2022-09-23T05:16:02;16.10;;;3.30;;
15603;SDS011;7902;49.042;9.092;2022-09-23T05:18:29;14.00;;;3.20;;
15603;SDS011;7902;49.042;9.092;2022-09-23T05:20:56;14.67;;;3.03;;
15603;SDS011;7902;49.042;9.092;2022-09-23T05:23:22;13.93;;;3.67;;
15603;SDS011;7902;49.042;9.092;2022-09-23T05:25:54;14.53;;;3.30;;
15603;SDS011;7902;49.042;9.092;2022-09-23T05:28:22;16.57;;;4.20;;
15603;SDS011;7902;49.042;9.092;2022-09-23T05:30:48;13.60;;;3.83;;
15603;SDS011;7902;49.042;9.092;2022-09-23T05:33:14;13.37;;;3.60;;
15603;SDS011;7902;49.042;9.092;2022-09-23T05:35:45;17.13;;;3.17;;
15603;SDS011;7902;49.042;9.092;2022-09-23T05:38:11;13.40;;;3.33;;
15603;SDS011;7902;49.042;9.092;2022-09-23T05:40:37;17.57;;;3.63;;
15603;SDS011;7902;49.042;9.092;2022-09-23T05:43:03;14.87;;;3.13;;
15603;SDS011;7902;49.042;9.092;2022-09-23T05:45:29;16.10;;;3.50;;
15603;SDS011;7902;49.042;9.092;2022-09-23T05:47:56;15.63;;;3.73;;
15603;SDS011;7902;49.042;9.092;2022-09-23T05:50:22;12.57;;;3.10;;
15603;SDS011;7902;49.042;9.092;2022-09-23T05:52:48;15.73;;;3.13;;
15603;SDS011;7902;49.042;9.092;2022-09-23T05:55:14;14.73;;;3.70;;
15603;SDS011;7902;49.042;9.092;2022-09-23T05:57:40;13.70;;;3.27;;
15603;SDS011;7902;49.042;9.092;2022-09-23T06:00:06;12.57;;;3.30;;
15603;SDS011;7902;49.042;9.092;2022-09-23T06:02:33;15.23;;;3.30;;
15603;SDS011;7902;49.042;9.092;2022-09-23T06:04:59;13.57;;;3.10;;
15603;SDS011;7902;49.042;9.092;2022-09-23T06:07:24;18.57;;;3.70;;
15603;SDS011;7902;49.042;9.092;2022-09-23T06:09:51;15.00;;;3.50;;
15603;SDS011;7902;49.042;9.092;2022-09-23T06:12:18;13.30;;;3.87;;
15603;SDS011;7902;49.042;9.092;2022-09-23T06:14:45;13.83;;;3.23;;
15603;SDS011;7902;49.042;9.092;2022-09-23T06:17:11;13.00;;;2.53;;
15603;SDS011;7902;49.042;9.092;2022-09-23T06:19:36;14.20;;;3.43;;
15603;SDS011;7902;49.042;9.092;2022-09-23T06:22:02;12.63;;;3.20;;
15603;SDS011;7902;49.042;9.092;2022-09-23T06:24:28;20.23;;;2.97;;
15603;SDS011;7902;49.042;9.092;2022-09-23T06:26:54;17.93;;;3.70;;
15603;SDS011;7902;49.042;9.092;2022-09-23T06:29:20;14.80;;;3.50;;
15603;SDS011;7902;49.042;9.092;2022-09-23T06:31:47;13.57;;;3.10;;
15603;SDS011;7902;49.042;9.092;2022-09-23T06:34:13;14.00;;;3.10;;
15603;SDS011;7902;49.042;9.092;2022-09-23T06:36:40;12.27;;;2.63;;
15603;SDS011;7902;49.042;9.092;2022-09-23T06:39:07;13.00;;;2.80;;
15603;SDS011;7902;49.042;9.092;2022-09-23T06:41:33;15.67;;;3.00;;
15603;SDS011;7902;49.042;9.092;2022-09-23T06:43:58;13.43;;;3.20;;
15603;SDS011;7902;49.042;9.092;2022-09-23T06:46:24;15.83;;;2.77;;
15603;SDS011;7902;49.042;9.092;2022-09-23T06:48:50;12.90;;;2.90;;
15603;SDS011;7902;49.042;9.092;2022-09-23T06:51:16;14.30;;;3.37;;
15603;SDS011;7902;49.042;9.092;2022-09-23T06:53:46;13.70;;;2.50;;
15603;SDS011;7902;49.042;9.092;2022-09-23T06:56:13;15.37;;;3.03;;
15603;SDS011;7902;49.042;9.092;2022-09-23T06:58:41;13.90;;;2.50;;
15603;SDS011;7902;49.042;9.092;2022-09-23T07:01:08;15.93;;;2.83;;
15603;SDS011;7902;49.042;9.092;2022-09-23T07:03:36;12.60;;;2.80;;
15603;SDS011;7902;49.042;9.092;2022-09-23T07:06:03;14.30;;;2.50;;
15603;SDS011;7902;49.042;9.092;2022-09-23T07:08:30;13.20;;;2.50;;
15603;SDS011;7902;49.042;9.092;2022-09-23T07:10:59;21.57;;;3.70;;
15603;SDS011;7902;49.042;9.092;2022-09-23T07:13:27;17.60;;;3.00;;
15603;SDS011;7902;49.042;9.092;2022-09-23T07:15:55;12.97;;;2.40;;
15603;SDS011;7902;49.042;9.092;2022-09-23T07:18:23;12.70;;;2.30;;
15603;SDS011;7902;49.042;9.092;2022-09-23T07:20:50;14.50;;;3.00;;
15603;SDS011;7902;49.042;9.092;2022-09-23T07:23:17;15.97;;;2.57;;
15603;SDS011;7902;49.042;9.092;2022-09-23T07:25:43;14.03;;;2.70;;
15603;SDS011;7902;49.042;9.092;2022-09-23T07:28:11;13.97;;;2.70;;
15603;SDS011;7902;49.042;9.092;2022-09-23T07:30:38;24.07;;;2.90;;
15603;SDS011;7902;49.042;9.092;2022-09-23T07:33:05;14.50;;;2.73;;
15603;SDS011;7902;49.042;9.092;2022-09-23T07:35:31;15.73;;;2.47;;
15603;SDS011;7902;49.042;9.092;2022-09-23T07:37:58;14.40;;;2.33;;
15603;SDS011;7902;49.042;9.092;2022-09-23T07:40:25;14.27;;;2.27;;
15603;SDS011;7902;49.042;9.092;2022-09-23T07:42:51;15.93;;;2.07;;
15603;SDS011;7902;49.042;9.092;2022-09-23T07:45:17;13.73;;;2.47;;
15603;SDS011;7902;49.042;9.092;2022-09-23T07:47:42;14.63;;;2.13;;
15603;SDS011;7902;49.042;9.092;2022-09-23T07:50:08;14.43;;;2.67;;
15603;SDS011;7902;49.042;9.092;2022-09-23T07:52:37;13.27;;;2.40;;
15603;SDS011;7902;49.042;9.092;2022-09-23T07:55:04;12.47;;;2.10;;
15603;SDS011;7902;49.042;9.092;2022-09-23T07:57:31;14.37;;;2.50;;
15603;SDS011;7902;49.042;9.092;2022-09-23T07:59:57;14.93;;;2.23;;
15603;SDS011;7902;49.042;9.092;2022-09-23T08:02:24;14.33;;;2.47;;
15603;SDS011;7902;49.042;9.092;2022-09-23T08:04:50;13.97;;;2.13;;
15603;SDS011;7902;49.042;9.092;2022-09-23T08:07:17;14.07;;;2.33;;
15603;SDS011;7902;49.042;9.092;2022-09-23T08:09:44;13.60;;;2.03;;
15603;SDS011;7902;49.042;9.092;2022-09-23T08:12:11;12.60;;;2.20;;
15603;SDS011;7902;49.042;9.092;2022-09-23T08:14:40;16.17;;;2.40;;
15603;SDS011;7902;49.042;9.092;2022-09-23T08:17:06;14.10;;;2.53;;
15603;SDS011;7902;49.042;9.092;2022-09-23T08:19:33;14.13;;;2.30;;
15603;SDS011;7902;49.042;9.092;2022-09-23T08:21:59;13.40;;;2.40;;
15603;SDS011;7902;49.042;9.092;2022-09-23T08:24:25;17.20;;;2.97;;
15603;SDS011;7902;49.042;9.092;2022-09-23T08:26:52;14.27;;;2.50;;
15603;SDS011;7902;49.042;9.092;2022-09-23T08:29:20;15.03;;;2.30;;
15603;SDS011;7902;49.042;9.092;2022-09-23T08:31:47;20.60;;;2.43;;
15603;SDS011;7902;49.042;9.092;2022-09-23T08:34:15;13.80;;;2.40;;
15603;SDS011;7902;49.042;9.092;2022-09-23T08:36:42;15.30;;;2.10;;
15603;SDS011;7902;49.042;9.092;2022-09-23T08:39:09;24.23;;;2.80;;
15603;SDS011;7902;49.042;9.092;2022-09-23T08:41:41;15.37;;;2.17;;
15603;SDS011;7902;49.042;9.092;2022-09-23T08:45:00;13.10;;;2.40;;
15603;SDS011;7902;49.042;9.092;2022-09-23T08:47:13;18.63;;;2.50;;
15603;SDS011;7902;49.042;9.092;2022-09-23T08:49:44;26.03;;;2.87;;
15603;SDS011;7902;49.042;9.092;2022-09-23T08:52:30;13.80;;;2.23;;
15603;SDS011;7902;49.042;9.092;2022-09-23T08:54:59;16.50;;;2.30;;
15603;SDS011;7902;49.042;9.092;2022-09-23T09:00:27;16.03;;;2.90;;
15603;SDS011;7902;49.042;9.092;2022-09-23T09:03:02;16.60;;;2.27;;
15603;SDS011;7902;49.042;9.092;2022-09-23T09:05:40;13.53;;;2.10;;
15603;SDS011;7902;49.042;9.092;2022-09-23T09:08:07;15.40;;;2.70;;
15603;SDS011;7902;49.042;9.092;2022-09-23T09:10:38;14.40;;;3.00;;
15603;SDS011;7902;49.042;9.092;2022-09-23T09:13:10;13.63;;;2.33;;
15603;SDS011;7902;49.042;9.092;2022-09-23T09:19:12;14.10;;;2.37;;
15603;SDS011;7902;49.042;9.092;2022-09-23T09:21:45;16.03;;;2.00;;
15603;SDS011;7902;49.042;9.092;2022-09-23T09:24:18;20.90;;;2.63;;
15603;SDS011;7902;49.042;9.092;2022-09-23T09:26:50;18.40;;;3.40;;
15603;SDS011;7902;49.042;9.092;2022-09-23T09:29:17;17.70;;;3.00;;
15603;SDS011;7902;49.042;9.092;2022-09-23T09:31:50;13.80;;;2.40;;
15603;SDS011;7902;49.042;9.092;2022-09-23T09:37:08;20.23;;;2.60;;
15603;SDS011;7902;49.042;9.092;2022-09-23T09:39:49;14.27;;;2.53;;
15603;SDS011;7902;49.042;9.092;2022-09-23T09:42:17;20.57;;;2.63;;
15603;SDS011;7902;49.042;9.092;2022-09-23T09:44:54;17.73;;;2.80;;
15603;SDS011;7902;49.042;9.092;2022-09-23T09:52:33;17.43;;;2.80;;
15603;SDS011;7902;49.042;9.092;2022-09-23T09:57:39;18.20;;;2.50;;
15603;SDS011;7902;49.042;9.092;2022-09-23T10:13:25;15.47;;;2.90;;
15603;SDS011;7902;49.042;9.092;2022-09-23T10:15:53;22.73;;;2.43;;
15603;SDS011;7902;49.042;9.092;2022-09-23T10:20:58;17.53;;;2.67;;
15603;SDS011;7902;49.042;9.092;2022-09-23T10:23:28;15.40;;;2.10;;
15603;SDS011;7902;49.042;9.092;2022-09-23T10:26:01;22.33;;;2.33;;
15603;SDS011;7902;49.042;9.092;2022-09-23T10:28:31;19.03;;;2.70;;
15603;SDS011;7902;49.042;9.092;2022-09-23T10:31:08;16.37;;;2.27;;
15603;SDS011;7902;49.042;9.092;2022-09-23T10:33:41;14.13;;;2.40;;
15603;SDS011;7902;49.042;9.092;2022-09-23T10:36:13;14.17;;;2.00;;
15603;SDS011;7902;49.042;9.092;2022-09-23T10:38:40;14.93;;;2.50;;
15603;SDS011;7902;49.042;9.092;2022-09-23T10:41:11;18.83;;;2.93;;
15603;SDS011;7902;49.042;9.092;2022-09-23T10:44:12;17.80;;;3.07;;
15603;SDS011;7902;49.042;9.092;2022-09-23T10:47:10;18.80;;;2.67;;
15603;SDS011;7902;49.042;9.092;2022-09-23T10:49:44;16.37;;;2.20;;
15603;SDS011;7902;49.042;9.092;2022-09-23T11:01:15;16.13;;;2.43;;
15603;SDS011;7902;49.042;9.092;2022-09-23T11:06:48;16.10;;;2.70;;
15603;SDS011;7902;49.042;9.092;2022-09-23T11:22:53;15.27;;;2.40;;
15603;SDS011;7902;49.042;9.092;2022-09-23T11:36:35;18.03;;;2.20;;
15603;SDS011;7902;49.042;9.092;2022-09-23T11:39:12;16.20;;;2.07;;
15603;SDS011;7902;49.042;9.092;2022-09-23T11:41:41;14.60;;;2.07;;
15603;SDS011;7902;49.042;9.092;2022-09-23T11:44:16;15.17;;;2.20;;
15603;SDS011;7902;49.042;9.092;2022-09-23T11:46:58;17.20;;;2.03;;
15603;SDS011;7902;49.042;9.092;2022-09-23T11:52:41;16.63;;;2.50;;
15603;SDS011;7902;49.042;9.092;2022-09-23T11:55:12;16.53;;;2.00;;
15603;SDS011;7902;49.042;9.092;2022-09-23T11:57:44;13.90;;;1.70;;
15603;SDS011;7902;49.042;9.092;2022-09-23T12:00:17;14.87;;;1.80;;
15603;SDS011;7902;49.042;9.092;2022-09-23T12:05:56;17.90;;;2.10;;
15603;SDS011;7902;49.042;9.092;2022-09-23T12:08:26;18.13;;;1.93;;
15603;SDS011;7902;49.042;9.092;2022-09-23T12:16:30;22.03;;;2.00;;
15603;SDS011;7902;49.042;9.092;2022-09-23T12:22:10;14.20;;;2.03;;
15603;SDS011;7902;49.042;9.092;2022-09-23T12:27:48;16.80;;;1.90;;
15603;SDS011;7902;49.042;9.092;2022-09-23T12:30:18;18.00;;;1.83;;
15603;SDS011;7902;49.042;9.092;2022-09-23T12:32:46;13.90;;;1.50;;
15603;SDS011;7902;49.042;9.092;2022-09-23T12:35:22;21.30;;;2.23;;
15603;SDS011;7902;49.042;9.092;2022-09-23T12:37:58;31.60;;;2.17;;
15603;SDS011;7902;49.042;9.092;2022-09-23T12:42:55;14.10;;;1.83;;
15603;SDS011;7902;49.042;9.092;2022-09-23T12:47:59;17.97;;;1.87;;
15603;SDS011;7902;49.042;9.092;2022-09-23T12:56:00;15.20;;;1.57;;
15603;SDS011;7902;49.042;9.092;2022-09-23T13:03:48;18.90;;;2.10;;
15603;SDS011;7902;49.042;9.092;2022-09-23T13:06:39;13.80;;;1.60;;
15603;SDS011;7902;49.042;9.092;2022-09-23T13:09:16;14.40;;;1.57;;
15603;SDS011;7902;49.042;9.092;2022-09-23T13:11:46;21.83;;;1.70;;
15603;SDS011;7902;49.042;9.092;2022-09-23T13:14:17;15.50;;;1.70;;
15603;SDS011;7902;49.042;9.092;2022-09-23T13:16:47;23.80;;;1.60;;
15603;SDS011;7902;49.042;9.092;2022-09-23T13:24:19;17.17;;;1.73;;
15603;SDS011;7902;49.042;9.092;2022-09-23T13:29:34;15.97;;;2.00;;
15603;SDS011;7902;49.042;9.092;2022-09-23T13:32:08;19.40;;;1.97;;
15603;SDS011;7902;49.042;9.092;2022-09-23T13:34:37;18.80;;;1.60;;
15603;SDS011;7902;49.042;9.092;2022-09-23T13:37:15;17.90;;;1.60;;
15603;SDS011;7902;49.042;9.092;2022-09-23T13:39:44;17.92;;;2.00;;
15603;SDS011;7902;49.042;9.092;2022-09-23T13:42:12;14.50;;;1.77;;
15603;SDS011;7902;49.042;9.092;2022-09-23T13:44:50;16.37;;;1.93;;
15603;SDS011;7902;49.042;9.092;2022-09-23T13:47:25;16.20;;;1.95;;
15603;SDS011;7902;49.042;9.092;2022-09-23T13:49:54;14.30;;;1.77;;
15603;SDS011;7902;49.042;9.092;2022-09-23T13:52:23;18.80;;;1.53;;
15603;SDS011;7902;49.042;9.092;2022-09-23T13:54:52;26.23;;;1.93;;
15603;SDS011;7902;49.042;9.092;2022-09-23T13:57:28;18.60;;;1.97;;
15603;SDS011;7902;49.042;9.092;2022-09-23T14:00:00;15.30;;;1.50;;
15603;SDS011;7902;49.042;9.092;2022-09-23T14:02:27;20.37;;;1.70;;
15603;SDS011;7902;49.042;9.092;2022-09-23T14:04:56;16.53;;;2.20;;
15603;SDS011;7902;49.042;9.092;2022-09-23T14:07:23;18.97;;;1.83;;
15603;SDS011;7902;49.042;9.092;2022-09-23T14:09:50;14.00;;;1.43;;
15603;SDS011;7902;49.042;9.092;2022-09-23T14:12:18;16.83;;;1.73;;
15603;SDS011;7902;49.042;9.092;2022-09-23T14:14:47;17.03;;;1.93;;
15603;SDS011;7902;49.042;9.092;2022-09-23T14:17:16;17.47;;;1.60;;
15603;SDS011;7902;49.042;9.092;2022-09-23T14:19:45;21.13;;;2.10;;
15603;SDS011;7902;49.042;9.092;2022-09-23T14:22:22;15.30;;;1.70;;
15603;SDS011;7902;49.042;9.092;2022-09-23T14:24:50;17.83;;;1.60;;
15603;SDS011;7902;49.042;9.092;2022-09-23T14:27:24;18.90;;;1.83;;
15603;SDS011;7902;49.042;9.092;2022-09-23T14:29:55;16.30;;;1.93;;
15603;SDS011;7902;49.042;9.092;2022-09-23T14:32:23;14.90;;;1.90;;
15603;SDS011;7902;49.042;9.092;2022-09-23T14:37:32;20.30;;;2.23;;
15603;SDS011;7902;49.042;9.092;2022-09-23T14:40:21;14.13;;;1.73;;
15603;SDS011;7902;49.042;9.092;2022-09-23T14:42:49;15.13;;;1.83;;
15603;SDS011;7902;49.042;9.092;2022-09-23T14:45:24;19.43;;;2.27;;
15603;SDS011;7902;49.042;9.092;2022-09-23T14:47:55;15.10;;;2.13;;
15603;SDS011;7902;49.042;9.092;2022-09-23T14:50:25;17.40;;;1.83;;
15603;SDS011;7902;49.042;9.092;2022-09-23T14:55:44;16.87;;;2.03;;
15603;SDS011;7902;49.042;9.092;2022-09-23T14:58:17;21.60;;;2.07;;
15603;SDS011;7902;49.042;9.092;2022-09-23T15:00:57;17.13;;;2.10;;
15603;SDS011;7902;49.042;9.092;2022-09-23T15:03:25;14.40;;;2.00;;
15603;SDS011;7902;49.042;9.092;2022-09-23T15:05:56;16.13;;;1.90;;
15603;SDS011;7902;49.042;9.092;2022-09-23T15:08:30;17.13;;;2.03;;
15603;SDS011;7902;49.042;9.092;2022-09-23T15:10:59;17.90;;;2.57;;
15603;SDS011;7902;49.042;9.092;2022-09-23T15:13:29;16.00;;;2.60;;
15603;SDS011;7902;49.042;9.092;2022-09-23T15:15:58;20.40;;;2.50;;
15603;SDS011;7902;49.042;9.092;2022-09-23T15:18:31;17.27;;;2.23;;
15603;SDS011;7902;49.042;9.092;2022-09-23T15:21:06;15.27;;;1.77;;
15603;SDS011;7902;49.042;9.092;2022-09-23T15:26:38;19.33;;;2.23;;
15603;SDS011;7902;49.042;9.092;2022-09-23T15:29:09;16.40;;;2.07;;
15603;SDS011;7902;49.042;9.092;2022-09-23T15:31:35;22.77;;;2.60;;
15603;SDS011;7902;49.042;9.092;2022-09-23T15:34:01;16.33;;;2.60;;
15603;SDS011;7902;49.042;9.092;2022-09-23T15:36:29;34.93;;;3.00;;
15603;SDS011;7902;49.042;9.092;2022-09-23T15:39:03;19.57;;;3.00;;
15603;SDS011;7902;49.042;9.092;2022-09-23T15:41:31;22.83;;;3.17;;
15603;SDS011;7902;49.042;9.092;2022-09-23T15:44:01;17.93;;;2.57;;
15603;SDS011;7902;49.042;9.092;2022-09-23T15:46:36;17.23;;;2.50;;
15603;SDS011;7902;49.042;9.092;2022-09-23T15:49:47;18.77;;;2.97;;
15603;SDS011;7902;49.042;9.092;2022-09-23T15:51:58;28.13;;;2.70;;
15603;SDS011;7902;49.042;9.092;2022-09-23T15:54:25;21.90;;;2.50;;
15603;SDS011;7902;49.042;9.092;2022-09-23T15:56:52;18.97;;;2.90;;
15603;SDS011;7902;49.042;9.092;2022-09-23T15:59:18;17.50;;;2.40;;
15603;SDS011;7902;49.042;9.092;2022-09-23T16:01:44;18.73;;;2.40;;
15603;SDS011;7902;49.042;9.092;2022-09-23T16:04:11;22.43;;;2.57;;
15603;SDS011;7902;49.042;9.092;2022-09-23T16:06:41;21.90;;;2.43;;
15603;SDS011;7902;49.042;9.092;2022-09-23T16:09:09;19.47;;;2.33;;
15603;SDS011;7902;49.042;9.092;2022-09-23T16:11:37;20.20;;;2.40;;
15603;SDS011;7902;49.042;9.092;2022-09-23T16:14:04;24.40;;;2.70;;
15603;SDS011;7902;49.042;9.092;2022-09-23T16:16:32;16.97;;;2.00;;
15603;SDS011;7902;49.042;9.092;2022-09-23T16:18:58;20.87;;;2.33;;
15603;SDS011;7902;49.042;9.092;2022-09-23T16:21:24;23.03;;;2.20;;
15603;SDS011;7902;49.042;9.092;2022-09-23T16:23:52;15.23;;;2.20;;
15603;SDS011;7902;49.042;9.092;2022-09-23T16:26:23;17.20;;;2.13;;
15603;SDS011;7902;49.042;9.092;2022-09-23T16:28:52;15.60;;;2.37;;
15603;SDS011;7902;49.042;9.092;2022-09-23T16:31:20;15.03;;;2.30;;
15603;SDS011;7902;49.042;9.092;2022-09-23T16:33:49;22.80;;;2.37;;
15603;SDS011;7902;49.042;9.092;2022-09-23T16:36:19;19.73;;;2.67;;
15603;SDS011;7902;49.042;9.092;2022-09-23T16:38:48;17.10;;;2.70;;
15603;SDS011;7902;49.042;9.092;2022-09-23T16:41:14;20.53;;;2.90;;
15603;SDS011;7902;49.042;9.092;2022-09-23T16:43:40;18.03;;;2.10;;
15603;SDS011;7902;49.042;9.092;2022-09-23T16:46:10;28.73;;;7.47;;
15603;SDS011;7902;49.042;9.092;2022-09-23T16:48:38;27.97;;;9.33;;
15603;SDS011;7902;49.042;9.092;2022-09-23T16:51:05;31.33;;;5.60;;
15603;SDS011;7902;49.042;9.092;2022-09-23T16:53:32;33.40;;;5.77;;
15603;SDS011;7902;49.042;9.092;2022-09-23T16:56:04;21.70;;;4.73;;
15603;SDS011;7902;49.042;9.092;2022-09-23T16:58:34;28.90;;;8.70;;
15603;SDS011;7902;49.042;9.092;2022-09-23T17:01:01;94.83;;;41.10;;
15603;SDS011;7902;49.042;9.092;2022-09-23T17:03:45;82.97;;;33.03;;
15603;SDS011;7902;49.042;9.092;2022-09-23T17:06:12;61.60;;;25.70;;
15603;SDS011;7902;49.042;9.092;2022-09-23T17:08:39;26.03;;;8.57;;
15603;SDS011;7902;49.042;9.092;2022-09-23T17:11:06;33.40;;;11.27;;
15603;SDS011;7902;49.042;9.092;2022-09-23T17:13:35;32.90;;;14.10;;
15603;SDS011;7902;49.042;9.092;2022-09-23T17:16:01;39.73;;;17.40;;
15603;SDS011;7902;49.042;9.092;2022-09-23T17:18:27;43.20;;;16.07;;
15603;SDS011;7902;49.042;9.092;2022-09-23T17:20:55;32.33;;;9.67;;
15603;SDS011;7902;49.042;9.092;2022-09-23T17:23:31;22.53;;;5.87;;
15603;SDS011;7902;49.042;9.092;2022-09-23T17:26:00;21.97;;;4.60;;
15603;SDS011;7902;49.042;9.092;2022-09-23T17:28:27;21.40;;;5.03;;
15603;SDS011;7902;49.042;9.092;2022-09-23T17:30:54;42.13;;;10.10;;
15603;SDS011;7902;49.042;9.092;2022-09-23T17:33:27;39.53;;;12.03;;
15603;SDS011;7902;49.042;9.092;2022-09-23T17:35:55;33.80;;;9.00;;
15603;SDS011;7902;49.042;9.092;2022-09-23T17:38:22;44.37;;;12.83;;
15603;SDS011;7902;49.042;9.092;2022-09-23T17:40:52;58.93;;;24.13;;
15603;SDS011;7902;49.042;9.092;2022-09-23T17:43:20;60.40;;;25.13;;